Time;durP1;ratioP1;P1;durP2;ratioP2;P2;SDS_P1;SDS_P2;PMS_P1;PMS_P2;Temp;Humidity;BMP_temperature;BMP_pressure;BME280_temperature;BME280_humidity;BME280_pressure;Samples;Min_cycle;Max_cycle;Signal;HPM_P1;HPM_P2
2022/10/18 00:01:43;;;;;;;14.00;9.03;;;16.10;99.90;;;;;;5024015;28;20449;-83
2022/10/18 00:04:12;;;;;;;15.07;9.20;;;16.10;99.90;;;;;;5039067;28;20498;-83
2022/10/18 00:06:39;;;;;;;10.97;9.53;;;16.10;99.90;;;;;;5038981;28;20463;-84
2022/10/18 00:09:06;;;;;;;9.97;8.97;;;16.10;99.90;;;;;;5038890;28;20533;-83
2022/10/18 00:11:32;;;;;;;16.07;9.43;;;16.10;99.90;;;;;;5028202;28;20502;-85
2022/10/18 00:14:01;;;;;;;15.27;9.30;;;16.10;99.90;;;;;;5032139;28;20460;-84
2022/10/18 00:16:28;;;;;;;19.03;9.03;;;16.00;99.90;;;;;;5014845;28;20945;-84
2022/10/18 00:18:54;;;;;;;12.40;10.03;;;15.90;99.90;;;;;;5006838;28;20456;-82
2022/10/18 00:21:23;;;;;;;14.37;9.30;;;16.00;99.90;;;;;;5007123;28;20431;-85
2022/10/18 00:23:53;;;;;;;15.73;8.23;;;16.00;99.90;;;;;;5007670;28;20448;-82
2022/10/18 00:26:23;;;;;;;12.37;9.60;;;15.90;99.90;;;;;;5006215;28;20585;-83
2022/10/18 00:28:52;;;;;;;16.90;10.00;;;15.90;99.90;;;;;;5005590;28;20517;-83
2022/10/18 00:31:22;;;;;;;11.73;7.57;;;15.90;99.90;;;;;;5008078;28;20448;-84
2022/10/18 00:33:54;;;;;;;11.27;9.50;;;15.80;99.90;;;;;;5010652;28;20439;-84
2022/10/18 00:36:21;;;;;;;12.90;8.97;;;15.80;99.90;;;;;;5017269;28;20443;-84
2022/10/18 00:38:49;;;;;;;17.00;9.00;;;15.70;99.90;;;;;;5018857;28;20481;-84
2022/10/18 00:41:18;;;;;;;13.23;8.17;;;15.70;99.90;;;;;;5015805;28;20437;-84
2022/10/18 00:43:54;;;;;;;12.07;10.10;;;15.60;99.90;;;;;;5013391;28;20453;-84
2022/10/18 00:46:23;;;;;;;13.17;10.47;;;15.60;99.90;;;;;;5011414;28;20475;-84
2022/10/18 00:48:51;;;;;;;19.77;11.80;;;15.70;99.90;;;;;;5009435;28;20864;-84
2022/10/18 00:51:21;;;;;;;13.90;10.33;;;15.70;99.90;;;;;;5009651;28;20446;-84
2022/10/18 00:53:48;;;;;;;10.13;9.03;;;15.70;99.90;;;;;;5010132;28;20458;-84
2022/10/18 00:56:15;;;;;;;24.80;9.37;;;15.70;99.90;;;;;;5009639;28;20943;-84
2022/10/18 00:58:43;;;;;;;13.90;7.03;;;15.80;99.90;;;;;;5022099;28;20460;-83
2022/10/18 01:01:10;;;;;;;16.90;9.13;;;15.80;99.90;;;;;;5024511;28;20432;-83
2022/10/18 01:03:39;;;;;;;9.60;7.50;;;15.90;99.90;;;;;;5023313;28;20537;-82
2022/10/18 01:06:08;;;;;;;14.17;8.47;;;15.90;99.90;;;;;;5029014;28;20493;-83
2022/10/18 01:09:03;;;;;;;14.20;8.17;;;16.00;99.90;;;;;;5028577;28;20971;-82
2022/10/18 01:11:50;;;;;;;13.10;8.70;;;16.00;99.90;;;;;;5030349;28;20470;-83
2022/10/18 01:14:27;;;;;;;15.97;9.00;;;16.00;99.90;;;;;;5029062;28;20427;-83
2022/10/18 01:17:06;;;;;;;11.70;8.83;;;16.00;99.90;;;;;;5026514;28;20451;-83
2022/10/18 01:19:57;;;;;;;11.90;7.83;;;16.00;99.90;;;;;;5030667;28;20557;-82
2022/10/18 01:22:28;;;;;;;16.83;9.73;;;16.00;99.90;;;;;;5034111;28;20443;-83
2022/10/18 01:25:06;;;;;;;11.80;10.03;;;16.00;99.90;;;;;;5034920;28;20493;-82
2022/10/18 01:27:48;;;;;;;11.50;8.47;;;16.00;99.90;;;;;;5033872;28;20873;-85
2022/10/18 01:30:36;;;;;;;13.43;8.33;;;16.00;99.90;;;;;;5024468;28;20521;-82
2022/10/18 01:33:10;;;;;;;14.60;9.00;;;16.00;99.90;;;;;;5006947;28;20454;-83
2022/10/18 01:35:42;;;;;;;17.10;9.23;;;15.90;99.90;;;;;;5003444;28;20446;-83
2022/10/18 01:38:12;;;;;;;13.47;9.47;;;16.00;99.90;;;;;;5002109;28;20467;-83
2022/10/18 01:40:41;;;;;;;13.50;9.40;;;16.00;99.90;;;;;;5003607;28;20519;-83
2022/10/18 01:43:10;;;;;;;16.80;9.03;;;15.90;99.90;;;;;;5002248;28;20826;-83
2022/10/18 01:45:38;;;;;;;17.47;9.63;;;16.00;99.90;;;;;;5003799;28;21045;-82
2022/10/18 01:48:06;;;;;;;17.37;9.00;;;16.00;99.90;;;;;;5012473;28;20475;-82
2022/10/18 01:50:34;;;;;;;15.90;9.60;;;16.10;99.90;;;;;;5015739;28;20443;-82
2022/10/18 01:53:02;;;;;;;14.37;9.40;;;16.10;99.90;;;;;;5009710;28;20451;-83
2022/10/18 01:55:37;;;;;;;13.53;8.90;;;16.20;99.90;;;;;;5006163;28;20443;-84
2022/10/18 01:58:11;;;;;;;13.30;8.67;;;16.10;99.90;;;;;;5005084;28;20477;-84
2022/10/18 02:00:41;;;;;;;9.93;8.33;;;16.10;99.90;;;;;;5004898;28;20451;-83
2022/10/18 02:03:17;;;;;;;9.50;8.27;;;16.10;99.90;;;;;;5004742;28;20514;-84
2022/10/18 02:05:48;;;;;;;9.93;8.23;;;16.10;99.90;;;;;;5002014;28;20920;-83
2022/10/18 02:08:23;;;;;;;12.27;9.23;;;16.20;99.90;;;;;;5002152;28;20472;-81
2022/10/18 02:10:55;;;;;;;16.00;8.90;;;16.20;99.90;;;;;;5002047;28;20436;-83
2022/10/18 02:13:26;;;;;;;13.20;7.50;;;16.10;99.90;;;;;;5000392;28;20893;-83
2022/10/18 02:15:59;;;;;;;12.10;8.00;;;16.10;99.90;;;;;;5002043;28;20443;-82
2022/10/18 02:18:34;;;;;;;17.10;9.73;;;16.10;99.90;;;;;;5003731;28;20472;-82
2022/10/18 02:21:03;;;;;;;13.27;7.50;;;16.10;99.90;;;;;;5003595;28;20461;-83
2022/10/18 02:23:31;;;;;;;16.20;9.20;;;16.00;99.90;;;;;;5007046;28;20451;-83
2022/10/18 02:25:58;;;;;;;12.50;8.60;;;16.00;99.90;;;;;;5006306;28;20498;-82
2022/10/18 02:28:25;;;;;;;18.50;9.27;;;16.00;99.90;;;;;;5011164;28;20459;-81
2022/10/18 02:31:02;;;;;;;13.63;8.33;;;16.00;99.90;;;;;;5014405;28;20448;-83
2022/10/18 02:33:39;;;;;;;16.60;8.80;;;16.00;99.90;;;;;;5007013;28;20830;-83
2022/10/18 02:36:12;;;;;;;9.87;8.00;;;16.00;99.90;;;;;;5016887;28;20438;-82
2022/10/18 02:38:41;;;;;;;11.67;8.50;;;16.00;99.90;;;;;;5016574;28;20469;-81
2022/10/18 02:41:08;;;;;;;13.07;7.83;;;16.00;99.90;;;;;;5010504;28;20503;-83
2022/10/18 02:43:35;;;;;;;14.90;7.50;;;16.00;99.90;;;;;;5006810;28;20451;-84
2022/10/18 02:46:03;;;;;;;9.73;7.40;;;16.10;99.90;;;;;;5006268;28;20541;-84
2022/10/18 02:48:30;;;;;;;15.47;9.30;;;16.00;99.90;;;;;;5005488;28;21041;-84
2022/10/18 02:50:57;;;;;;;20.40;8.77;;;16.00;99.90;;;;;;5012857;28;20435;-83
2022/10/18 02:53:23;;;;;;;12.67;9.50;;;16.00;99.90;;;;;;5015208;28;20461;-83
2022/10/18 02:55:50;;;;;;;13.83;9.37;;;16.10;99.90;;;;;;5006602;28;20437;-84
2022/10/18 02:58:17;;;;;;;11.23;8.67;;;16.10;99.90;;;;;;5005720;28;20460;-83
2022/10/18 03:00:43;;;;;;;8.90;8.00;;;16.10;99.90;;;;;;5005788;28;20466;-83
2022/10/18 03:03:11;;;;;;;9.37;7.57;;;16.10;99.90;;;;;;5005251;28;20459;-84
2022/10/18 03:05:38;;;;;;;14.73;8.67;;;16.10;99.90;;;;;;5005316;28;20483;-83
2022/10/18 03:10:40;;;;;;;11.47;9.00;;;16.10;99.90;;;;;;5040439;28;20464;-84
2022/10/18 03:13:07;;;;;;;15.63;10.70;;;16.10;99.90;;;;;;5043831;28;20448;-84
2022/10/18 03:15:34;;;;;;;13.40;9.70;;;16.10;99.90;;;;;;5057966;28;20424;-80
2022/10/18 03:18:00;;;;;;;14.90;9.20;;;16.10;99.90;;;;;;5056174;28;20811;-82
2022/10/18 03:20:29;;;;;;;16.33;9.80;;;16.10;99.90;;;;;;5018300;28;20467;-82
2022/10/18 03:22:55;;;;;;;18.37;9.70;;;16.20;99.90;;;;;;5018127;28;20446;-82
2022/10/18 03:25:22;;;;;;;11.83;9.40;;;16.10;99.90;;;;;;5018200;28;20466;-83
2022/10/18 03:27:49;;;;;;;16.07;10.30;;;16.10;99.90;;;;;;5020319;28;20454;-82
2022/10/18 03:30:16;;;;;;;12.93;9.30;;;16.10;99.90;;;;;;5021121;28;20477;-81
2022/10/18 03:32:42;;;;;;;10.10;8.50;;;16.00;99.90;;;;;;5016971;28;20819;-81
2022/10/18 03:35:10;;;;;;;11.93;8.77;;;16.00;99.90;;;;;;5019190;28;20447;-81
2022/10/18 03:37:38;;;;;;;12.60;8.07;;;16.00;99.90;;;;;;5020190;28;20450;-82
2022/10/18 03:40:06;;;;;;;19.10;9.83;;;15.90;99.90;;;;;;5019520;28;20471;-83
2022/10/18 03:42:33;;;;;;;12.37;8.70;;;15.90;99.90;;;;;;5020702;28;20470;-83
2022/10/18 03:44:59;;;;;;;14.80;8.90;;;16.00;99.90;;;;;;5020525;28;20443;-82
2022/10/18 03:47:26;;;;;;;12.23;8.70;;;15.90;99.90;;;;;;5020027;28;20482;-83
2022/10/18 03:49:53;;;;;;;9.03;7.50;;;15.90;99.90;;;;;;5021398;28;20474;-85
2022/10/18 03:52:20;;;;;;;15.77;8.50;;;15.90;99.90;;;;;;5021334;28;20457;-83
2022/10/18 03:54:48;;;;;;;12.17;9.27;;;15.90;99.90;;;;;;5022103;28;20963;-82
2022/10/18 03:57:14;;;;;;;9.43;7.50;;;15.80;99.90;;;;;;5021746;28;20450;-83
2022/10/18 03:59:41;;;;;;;10.73;7.23;;;15.80;99.90;;;;;;5023538;28;20466;-82
2022/10/18 04:02:08;;;;;;;13.60;8.70;;;15.80;99.90;;;;;;5022888;28;20446;-83
2022/10/18 04:04:35;;;;;;;9.90;7.93;;;15.80;99.90;;;;;;5026522;28;20455;-83
2022/10/18 04:07:01;;;;;;;10.00;7.57;;;15.70;99.90;;;;;;5022125;28;20486;-83
2022/10/18 04:09:28;;;;;;;10.27;7.07;;;15.70;99.90;;;;;;5031933;28;20477;-80
2022/10/18 04:11:56;;;;;;;11.83;8.00;;;15.70;99.90;;;;;;5039329;28;20439;-80
2022/10/18 04:14:23;;;;;;;9.93;8.67;;;15.70;99.90;;;;;;5027654;28;20447;-83
2022/10/18 04:16:49;;;;;;;10.93;8.23;;;15.70;99.90;;;;;;5024251;28;20494;-81
2022/10/18 04:19:16;;;;;;;14.20;7.70;;;15.60;99.90;;;;;;5022760;28;20466;-82
2022/10/18 04:21:43;;;;;;;16.00;11.17;;;15.60;99.90;;;;;;5021951;28;20443;-83
2022/10/18 04:24:10;;;;;;;14.00;8.33;;;15.50;99.90;;;;;;5020522;28;20443;-83
2022/10/18 04:26:36;;;;;;;11.97;7.67;;;15.50;99.90;;;;;;5020823;28;20453;-81
2022/10/18 04:29:05;;;;;;;21.47;8.23;;;15.50;99.90;;;;;;5021123;28;20463;-84
2022/10/18 04:31:32;;;;;;;8.60;7.63;;;15.40;99.90;;;;;;5019963;28;20456;-84
2022/10/18 04:33:58;;;;;;;9.90;7.17;;;15.40;99.90;;;;;;5021186;28;20442;-83
2022/10/18 04:36:25;;;;;;;15.10;6.87;;;15.40;99.90;;;;;;5021418;28;21074;-83
2022/10/18 04:38:52;;;;;;;10.60;7.40;;;15.50;99.90;;;;;;5023945;28;20466;-84
2022/10/18 04:41:18;;;;;;;12.40;7.80;;;15.50;99.90;;;;;;5019214;28;20458;-83
2022/10/18 04:43:45;;;;;;;9.63;6.93;;;15.50;99.90;;;;;;5025173;28;20443;-83
2022/10/18 04:46:13;;;;;;;11.33;7.90;;;15.50;99.90;;;;;;5030752;28;20437;-83
2022/10/18 04:48:40;;;;;;;10.20;7.37;;;15.50;99.90;;;;;;5029155;28;20478;-83
2022/10/18 04:51:07;;;;;;;12.13;7.90;;;15.50;99.90;;;;;;5023284;28;20449;-83
2022/10/18 04:53:33;;;;;;;15.00;8.33;;;15.60;99.90;;;;;;5019400;28;20450;-84
2022/10/18 04:56:00;;;;;;;13.33;7.80;;;15.50;99.90;;;;;;5019070;28;20486;-83
2022/10/18 04:58:27;;;;;;;13.23;8.67;;;15.50;99.90;;;;;;5023686;28;20468;-82
2022/10/18 05:00:54;;;;;;;14.50;8.60;;;15.60;99.90;;;;;;5026937;28;20438;-83
2022/10/18 05:03:21;;;;;;;13.23;8.40;;;15.60;99.90;;;;;;5034780;28;20427;-82
2022/10/18 05:05:50;;;;;;;12.40;8.27;;;15.60;99.90;;;;;;5036472;28;20442;-82
2022/10/18 05:08:17;;;;;;;17.00;8.17;;;15.60;99.90;;;;;;5023876;28;20447;-82
2022/10/18 05:10:44;;;;;;;11.33;8.00;;;15.70;99.90;;;;;;5017677;28;20457;-83
2022/10/18 05:13:10;;;;;;;17.73;8.80;;;15.70;99.90;;;;;;5018898;28;20443;-83
2022/10/18 05:15:37;;;;;;;11.30;9.20;;;15.60;99.90;;;;;;5018887;28;20452;-83
2022/10/18 05:18:04;;;;;;;25.03;9.47;;;15.50;99.90;;;;;;5017567;28;20478;-83
2022/10/18 05:20:32;;;;;;;9.40;7.83;;;15.60;99.90;;;;;;5018431;28;20809;-84
2022/10/18 05:22:59;;;;;;;14.63;9.40;;;15.50;99.90;;;;;;5018930;28;20470;-84
2022/10/18 05:25:25;;;;;;;18.63;8.60;;;15.60;99.90;;;;;;5018174;28;20462;-83
2022/10/18 05:27:52;;;;;;;13.33;8.53;;;15.60;99.90;;;;;;5018754;28;20435;-84
2022/10/18 05:30:19;;;;;;;13.10;8.27;;;15.60;99.90;;;;;;5019149;28;20871;-80
2022/10/18 05:32:46;;;;;;;14.83;8.80;;;15.60;99.90;;;;;;5023078;28;20473;-85
2022/10/18 05:35:13;;;;;;;12.60;6.93;;;15.60;99.90;;;;;;5019167;28;20450;-85
2022/10/18 05:37:41;;;;;;;24.20;7.73;;;15.70;99.90;;;;;;5020320;28;20910;-83
2022/10/18 05:40:09;;;;;;;13.53;9.10;;;15.60;99.90;;;;;;5018160;28;20475;-83
2022/10/18 05:42:35;;;;;;;12.20;8.20;;;15.60;99.90;;;;;;5018162;28;20450;-83
2022/10/18 05:45:02;;;;;;;13.30;8.00;;;15.60;99.90;;;;;;5017795;28;20447;-82
2022/10/18 05:47:29;;;;;;;11.20;7.50;;;15.60;99.90;;;;;;5017711;28;20445;-82
2022/10/18 05:49:55;;;;;;;13.27;8.20;;;15.60;99.90;;;;;;5018536;28;20470;-82
2022/10/18 05:52:22;;;;;;;23.00;8.97;;;15.50;99.90;;;;;;5016403;28;20466;-82
2022/10/18 05:54:52;;;;;;;12.77;8.00;;;15.50;99.90;;;;;;5022360;28;20528;-82
2022/10/18 05:57:19;;;;;;;14.40;7.23;;;15.60;99.90;;;;;;5031412;28;20482;-79
2022/10/18 05:59:46;;;;;;;12.00;7.83;;;15.60;99.90;;;;;;5037181;28;20522;-82
2022/10/18 06:02:13;;;;;;;14.30;9.00;;;15.60;99.90;;;;;;5037281;28;20435;-80
2022/10/18 06:04:39;;;;;;;13.93;8.37;;;15.50;99.90;;;;;;5029468;28;20839;-81
2022/10/18 06:07:08;;;;;;;15.93;7.73;;;15.60;99.90;;;;;;5019724;28;20447;-82
2022/10/18 06:09:35;;;;;;;11.83;6.90;;;15.60;99.90;;;;;;5018000;28;20478;-82
2022/10/18 06:12:04;;;;;;;12.70;9.80;;;15.50;99.90;;;;;;5020503;28;20451;-81
2022/10/18 06:14:31;;;;;;;11.70;7.50;;;15.60;99.90;;;;;;5023106;28;20940;-83
2022/10/18 06:16:58;;;;;;;11.30;7.50;;;15.60;99.90;;;;;;5022602;28;20482;-82
2022/10/18 06:19:26;;;;;;;8.30;7.10;;;15.60;99.90;;;;;;5022352;28;20558;-80
2022/10/18 06:21:52;;;;;;;10.77;6.97;;;15.60;99.90;;;;;;5023123;28;20457;-82
2022/10/18 06:24:20;;;;;;;9.10;6.90;;;15.60;99.90;;;;;;5023518;28;20854;-84
2022/10/18 06:26:48;;;;;;;21.20;8.17;;;15.70;99.90;;;;;;5030764;28;20439;-80
2022/10/18 06:29:16;;;;;;;10.83;7.13;;;15.80;99.90;;;;;;5037173;28;20485;-81
2022/10/18 06:31:43;;;;;;;10.90;6.60;;;15.90;99.90;;;;;;5034044;28;20443;-84
2022/10/18 06:34:09;;;;;;;12.70;7.50;;;16.10;99.90;;;;;;5025204;28;20443;-82
2022/10/18 06:36:36;;;;;;;13.70;7.20;;;16.30;99.90;;;;;;5020355;28;20503;-85
2022/10/18 06:39:03;;;;;;;10.40;6.73;;;16.50;99.90;;;;;;5018189;28;20467;-82
2022/10/18 06:41:29;;;;;;;17.20;7.87;;;16.70;99.90;;;;;;5018221;28;20465;-84
2022/10/18 06:43:57;;;;;;;8.67;6.60;;;16.90;99.90;;;;;;5021824;28;20451;-82
2022/10/18 06:46:26;;;;;;;16.80;7.70;;;17.10;99.90;;;;;;5015862;28;20486;-83
2022/10/18 06:48:52;;;;;;;17.53;7.53;;;17.20;99.90;;;;;;5014949;28;20470;-80
2022/10/18 06:51:19;;;;;;;14.03;8.30;;;17.30;99.90;;;;;;5032228;28;20426;-79
2022/10/18 06:53:46;;;;;;;14.87;7.30;;;17.40;99.90;;;;;;5032527;28;20454;-80
2022/10/18 06:56:13;;;;;;;16.87;7.80;;;17.40;99.90;;;;;;5016668;28;20458;-81
2022/10/18 06:58:40;;;;;;;12.80;8.20;;;17.50;99.90;;;;;;5015400;28;20473;-81
2022/10/18 07:01:08;;;;;;;14.50;7.50;;;17.60;99.90;;;;;;5014935;28;20458;-81
2022/10/18 07:03:37;;;;;;;16.50;7.83;;;17.60;99.90;;;;;;5014357;28;20455;-82
2022/10/18 07:06:05;;;;;;;11.03;7.83;;;17.70;99.90;;;;;;5014341;28;20442;-81
2022/10/18 07:08:32;;;;;;;11.03;7.83;;;17.80;99.90;;;;;;5021409;28;20877;-82
2022/10/18 07:10:58;;;;;;;15.60;7.67;;;17.90;99.90;;;;;;5021005;28;20446;-81
2022/10/18 07:13:27;;;;;;;11.73;7.07;;;17.90;99.90;;;;;;5017800;28;20823;-82
2022/10/18 07:16:02;;;;;;;10.50;6.67;;;18.00;99.90;;;;;;5021329;28;20450;-81
2022/10/18 07:18:29;;;;;;;13.23;7.63;;;18.00;99.90;;;;;;5026687;28;20863;-81
2022/10/18 07:20:57;;;;;;;12.33;6.93;;;18.00;99.90;;;;;;5026527;28;20450;-81
2022/10/18 07:23:23;;;;;;;11.33;6.63;;;18.10;99.90;;;;;;5018841;28;20462;-81
2022/10/18 07:25:50;;;;;;;19.80;6.27;;;18.10;99.90;;;;;;5018976;28;20841;-82
2022/10/18 07:28:17;;;;;;;10.07;6.13;;;18.10;99.90;;;;;;5018193;28;20458;-81
2022/10/18 07:30:44;;;;;;;13.23;7.50;;;18.10;99.90;;;;;;5016815;28;20437;-82
2022/10/18 07:33:11;;;;;;;13.67;6.77;;;18.10;99.90;;;;;;5019235;28;20446;-80
2022/10/18 07:35:38;;;;;;;15.70;9.00;;;18.20;99.90;;;;;;5020870;28;20860;-82
2022/10/18 07:38:06;;;;;;;16.70;7.83;;;18.30;99.90;;;;;;5017562;28;20489;-81
2022/10/18 07:40:32;;;;;;;18.23;8.53;;;18.30;99.90;;;;;;5017793;28;20454;-81
2022/10/18 07:42:59;;;;;;;12.77;8.40;;;18.50;99.90;;;;;;5017580;28;20451;-80
2022/10/18 07:45:29;;;;;;;12.80;7.77;;;18.60;99.90;;;;;;5017475;28;20446;-81
2022/10/18 07:47:56;;;;;;;17.20;9.67;;;18.70;99.90;;;;;;5017082;28;20955;-81
2022/10/18 07:50:23;;;;;;;14.13;9.00;;;18.80;99.90;;;;;;5016996;28;20497;-82
2022/10/18 07:52:50;;;;;;;14.60;8.50;;;18.90;99.90;;;;;;5017292;28;20450;-81
2022/10/18 07:55:18;;;;;;;17.90;9.67;;;18.90;99.90;;;;;;5018465;28;20450;-82
2022/10/18 07:57:44;;;;;;;11.03;7.23;;;19.00;99.90;;;;;;5003564;28;20481;-81
2022/10/18 08:00:12;;;;;;;11.67;7.93;;;19.00;99.90;;;;;;4994807;28;20466;-82
2022/10/18 08:02:39;;;;;;;9.60;7.20;;;19.10;99.90;;;;;;5001080;28;20439;-82
2022/10/18 08:05:06;;;;;;;10.87;7.13;;;19.00;99.90;;;;;;5002871;28;20446;-82
2022/10/18 08:07:35;;;;;;;10.13;7.10;;;19.10;99.90;;;;;;5003982;28;20444;-81
2022/10/18 08:10:03;;;;;;;11.70;8.10;;;19.20;99.90;;;;;;5004277;28;20473;-82
2022/10/18 08:12:31;;;;;;;13.13;7.37;;;19.40;99.90;;;;;;5003330;28;20447;-83
2022/10/18 08:14:58;;;;;;;11.27;7.27;;;19.50;99.90;;;;;;5005454;28;20443;-82
2022/10/18 08:17:24;;;;;;;11.67;8.10;;;19.50;99.90;;;;;;5003968;28;20482;-82
2022/10/18 08:19:51;;;;;;;10.50;7.80;;;19.50;99.90;;;;;;5010568;28;20458;-82
2022/10/18 08:22:18;;;;;;;12.83;8.30;;;19.40;99.90;;;;;;4999626;28;20447;-82
2022/10/18 08:24:45;;;;;;;15.87;8.40;;;19.40;99.90;;;;;;5002624;28;20904;-81
2022/10/18 08:27:11;;;;;;;12.13;8.00;;;19.40;99.90;;;;;;4996805;28;20440;-82
2022/10/18 08:29:40;;;;;;;11.77;7.83;;;19.50;99.90;;;;;;5003514;28;20845;-81
2022/10/18 08:32:07;;;;;;;9.93;7.37;;;19.50;99.90;;;;;;4997332;28;20443;-82
2022/10/18 08:34:34;;;;;;;15.97;8.37;;;19.50;99.90;;;;;;5006507;28;20447;-83
2022/10/18 08:37:01;;;;;;;12.40;8.03;;;19.40;99.90;;;;;;5005876;28;20443;-82
2022/10/18 08:39:28;;;;;;;13.57;7.70;;;19.40;99.90;;;;;;5022364;28;20458;-85
2022/10/18 08:42:19;;;;;;;14.60;7.67;;;19.50;99.90;;;;;;5030556;28;20615;-83
2022/10/18 08:44:49;;;;;;;17.63;7.97;;;19.60;99.90;;;;;;5024832;28;20430;-83
2022/10/18 08:47:19;;;;;;;18.67;8.20;;;19.60;99.90;;;;;;5006772;28;20441;-82
2022/10/18 08:49:49;;;;;;;13.70;7.67;;;19.80;99.90;;;;;;4995476;28;20463;-80
2022/10/18 08:52:24;;;;;;;15.80;6.77;;;19.90;99.90;;;;;;4994142;28;20435;-80
2022/10/18 08:55:00;;;;;;;13.93;7.50;;;20.00;99.90;;;;;;4994535;28;20446;-80
2022/10/18 08:57:28;;;;;;;12.27;6.90;;;20.10;99.90;;;;;;5009199;28;20478;-81
2022/10/18 08:59:56;;;;;;;10.97;6.90;;;20.30;99.90;;;;;;5016807;28;20537;-82
2022/10/18 09:02:36;;;;;;;15.53;6.90;;;20.70;99.90;;;;;;5015738;28;20977;-83
2022/10/18 09:05:12;;;;;;;11.47;7.30;;;21.00;99.90;;;;;;5015154;28;20943;-81
2022/10/18 09:07:56;;;;;;;11.33;6.03;;;21.10;99.90;;;;;;4993942;28;20817;-81
2022/10/18 09:10:39;;;;;;;15.03;7.07;;;21.30;99.90;;;;;;4994086;28;20518;-79
2022/10/18 09:13:21;;;;;;;11.90;7.27;;;21.50;99.90;;;;;;4993841;28;20450;-81
2022/10/18 09:15:56;;;;;;;13.40;7.00;;;21.70;99.90;;;;;;5000542;28;20444;-82
2022/10/18 09:18:38;;;;;;;12.50;7.10;;;22.10;99.90;;;;;;4994646;28;20478;-82
2022/10/18 09:21:13;;;;;;;13.40;6.97;;;23.10;99.90;;;;;;4994053;28;20526;-81
2022/10/18 09:23:46;;;;;;;10.70;6.27;;;24.10;99.90;;;;;;4993721;28;20817;-82
2022/10/18 09:26:17;;;;;;;6.80;5.60;;;24.80;99.30;;;;;;4997992;28;20453;-84
2022/10/18 09:28:59;;;;;;;10.83;5.67;;;24.80;98.30;;;;;;5006819;28;20461;-84
2022/10/18 09:31:40;;;;;;;10.10;5.40;;;24.80;97.70;;;;;;5028127;28;20450;-89
2022/10/18 09:34:13;;;;;;;5.43;4.83;;;25.10;97.20;;;;;;5028144;28;20418;-88
2022/10/18 09:36:41;;;;;;;7.10;5.23;;;25.00;96.80;;;;;;5032400;28;20819;-89
2022/10/18 09:39:13;;;;;;;8.03;5.23;;;24.80;97.60;;;;;;5013548;28;20492;-88
2022/10/18 09:41:44;;;;;;;7.43;5.07;;;24.70;97.90;;;;;;5021305;28;20429;-88
2022/10/18 09:44:19;;;;;;;5.70;4.73;;;24.80;97.40;;;;;;5028079;28;20426;-89
2022/10/18 09:46:51;;;;;;;7.93;4.90;;;24.60;97.30;;;;;;5025532;28;20428;-90
2022/10/18 09:49:23;;;;;;;6.20;4.90;;;24.40;97.30;;;;;;5026474;28;20735;-89
2022/10/18 09:51:53;;;;;;;6.70;6.00;;;24.40;97.40;;;;;;5018910;28;20443;-87
2022/10/18 09:54:25;;;;;;;5.93;4.20;;;24.30;97.10;;;;;;5016254;28;20448;-90
2022/10/18 09:56:57;;;;;;;9.80;5.13;;;24.00;97.20;;;;;;5012184;28;20993;-86
2022/10/18 09:59:38;;;;;;;5.43;4.43;;;24.70;97.80;;;;;;4997582;28;20568;-88
2022/10/18 10:02:09;;;;;;;4.50;3.83;;;26.70;95.00;;;;;;5013273;28;20439;-86
2022/10/18 10:04:35;;;;;;;5.33;4.13;;;28.40;90.90;;;;;;5021883;28;20444;-86
2022/10/18 10:07:06;;;;;;;4.37;3.97;;;28.40;89.10;;;;;;5018880;28;20434;-88
2022/10/18 10:09:41;;;;;;;4.97;4.47;;;27.80;89.20;;;;;;5013132;28;20485;-92
2022/10/18 10:12:28;;;;;;;6.23;4.33;;;26.90;90.50;;;;;;5002632;28;20440;-88
2022/10/18 10:15:12;;;;;;;5.50;4.30;;;26.30;91.20;;;;;;5002296;28;20439;-91
2022/10/18 10:17:40;;;;;;;6.30;4.07;;;26.40;91.70;;;;;;5015209;28;21053;-88
2022/10/18 10:20:17;;;;;;;7.90;5.20;;;26.20;91.80;;;;;;4996055;28;20463;-88
2022/10/18 10:22:46;;;;;;;5.60;4.40;;;26.10;91.90;;;;;;5001538;28;20454;-88
2022/10/18 10:25:28;;;;;;;8.13;4.50;;;26.40;92.00;;;;;;5007447;28;20499;-88
2022/10/18 10:27:55;;;;;;;6.70;4.30;;;27.30;90.60;;;;;;5004716;28;20458;-86
2022/10/18 10:30:26;;;;;;;6.93;4.60;;;29.20;87.50;;;;;;4998330;28;20466;-83
2022/10/18 10:32:55;;;;;;;5.57;4.97;;;32.00;80.60;;;;;;5004246;28;21199;-83
2022/10/18 10:35:29;;;;;;;6.50;3.90;;;33.60;70.50;;;;;;5010427;28;20447;-82
2022/10/18 10:37:57;;;;;;;4.13;3.73;;;35.10;65.50;;;;;;5009523;28;20485;-84
2022/10/18 10:40:26;;;;;;;8.33;5.20;;;36.30;59.80;;;;;;5008040;28;20487;-84
2022/10/18 10:43:16;;;;;;;4.63;3.43;;;36.80;56.30;;;;;;5007380;28;20644;-83
2022/10/18 10:46:02;;;;;;;6.63;4.30;;;36.90;54.70;;;;;;5012497;28;20454;-85
2022/10/18 10:48:33;;;;;;;6.73;4.60;;;37.30;53.80;;;;;;5031590;28;20458;-84
2022/10/18 10:51:04;;;;;;;4.40;4.00;;;36.30;52.60;;;;;;5014608;28;20438;-83
2022/10/18 10:53:35;;;;;;;4.10;3.80;;;34.60;55.20;;;;;;5013459;28;20451;-86
2022/10/18 10:56:04;;;;;;;8.93;4.43;;;34.10;56.90;;;;;;5019071;28;20439;-85
2022/10/18 10:58:36;;;;;;;6.20;3.90;;;35.00;56.00;;;;;;5013626;28;20622;-86
2022/10/18 11:01:23;;;;;;;6.90;4.50;;;35.70;55.30;;;;;;5003443;28;20441;-85
2022/10/18 11:03:53;;;;;;;4.83;4.33;;;33.80;56.40;;;;;;5011464;28;20445;-83
2022/10/18 11:06:44;;;;;;;6.67;4.47;;;32.90;57.80;;;;;;5004325;28;20421;-83
2022/10/18 11:09:24;;;;;;;6.37;4.47;;;29.50;65.70;;;;;;5011412;28;20463;-85
2022/10/18 11:12:01;;;;;;;4.30;3.90;;;27.90;71.80;;;;;;4997467;28;20534;-83
2022/10/18 11:14:34;;;;;;;5.80;4.87;;;26.50;78.00;;;;;;5003588;28;20451;-83
2022/10/18 11:17:11;;;;;;;7.60;3.93;;;25.80;81.40;;;;;;5000929;28;20438;-83
2022/10/18 11:19:49;;;;;;;4.70;4.30;;;25.80;83.10;;;;;;5006361;28;20487;-84
2022/10/18 11:22:20;;;;;;;5.23;3.63;;;26.40;83.60;;;;;;5005816;28;20466;-84
2022/10/18 11:24:48;;;;;;;7.40;6.30;;;26.60;81.20;;;;;;4995876;28;20818;-86
2022/10/18 11:27:24;;;;;;;8.37;4.30;;;27.50;79.60;;;;;;4996030;28;20444;-86
2022/10/18 11:30:03;;;;;;;4.00;3.60;;;29.50;76.10;;;;;;5008279;28;20450;-86
2022/10/18 11:32:38;;;;;;;10.10;4.50;;;32.70;66.00;;;;;;5019784;28;20432;-82
2022/10/18 11:35:23;;;;;;;5.37;4.20;;;33.90;60.30;;;;;;5027026;28;20491;-83
2022/10/18 11:38:05;;;;;;;6.33;3.90;;;35.70;57.90;;;;;;5023840;28;20441;-85
2022/10/18 11:40:50;;;;;;;5.10;3.97;;;37.70;53.70;;;;;;5026712;28;20446;-86
2022/10/18 11:43:23;;;;;;;6.00;4.33;;;38.90;49.90;;;;;;5028302;28;20441;-87
2022/10/18 11:45:58;;;;;;;7.40;4.30;;;38.10;49.50;;;;;;5017945;28;20438;-85
2022/10/18 11:48:48;;;;;;;6.47;3.87;;;36.00;51.80;;;;;;5013724;28;20440;-87
2022/10/18 11:51:24;;;;;;;4.27;3.60;;;34.80;53.90;;;;;;5025170;28;20445;-86
2022/10/18 11:54:08;;;;;;;5.50;4.37;;;33.10;56.60;;;;;;5030379;28;20439;-88
2022/10/18 11:56:42;;;;;;;6.13;4.50;;;31.60;59.50;;;;;;5026779;28;20449;-86
2022/10/18 11:59:27;;;;;;;9.00;4.33;;;31.00;62.00;;;;;;5001978;28;20485;-87
2022/10/18 12:02:10;;;;;;;4.67;3.50;;;31.20;63.00;;;;;;5007594;28;20447;-87
2022/10/18 12:04:41;;;;;;;4.90;3.27;;;32.40;61.00;;;;;;5007561;28;20450;-88
2022/10/18 12:07:14;;;;;;;9.57;4.43;;;34.30;58.20;;;;;;4998022;28;20455;-86
2022/10/18 12:09:44;;;;;;;5.00;3.80;;;35.70;55.00;;;;;;5003594;28;20562;-87
2022/10/18 12:12:18;;;;;;;4.80;4.00;;;37.00;52.70;;;;;;5007314;28;20453;-86
2022/10/18 12:14:48;;;;;;;6.20;3.97;;;37.40;52.20;;;;;;5011477;28;20454;-86
2022/10/18 12:17:20;;;;;;;6.10;3.13;;;36.50;52.10;;;;;;5011060;28;20451;-86
2022/10/18 12:19:49;;;;;;;4.43;3.30;;;35.30;53.50;;;;;;5011145;28;20487;-86
2022/10/18 12:22:22;;;;;;;4.80;3.67;;;34.30;55.70;;;;;;5012493;28;20440;-87
2022/10/18 12:24:49;;;;;;;4.60;2.77;;;33.40;56.90;;;;;;5001939;28;20460;-86
2022/10/18 12:27:17;;;;;;;5.77;3.30;;;32.10;58.70;;;;;;5009993;28;20453;-86
2022/10/18 12:29:49;;;;;;;8.63;3.10;;;31.00;61.10;;;;;;5007503;28;20575;-87
2022/10/18 12:32:19;;;;;;;3.10;2.60;;;29.80;64.80;;;;;;5004578;28;20437;-86
2022/10/18 12:34:50;;;;;;;5.03;3.00;;;29.10;67.10;;;;;;5002021;28;20811;-86
2022/10/18 12:37:54;;;;;;;3.20;2.60;;;28.70;68.50;;;;;;5001807;28;20529;-86
2022/10/18 12:40:24;;;;;;;5.43;2.60;;;28.10;70.10;;;;;;5002112;28;20490;-87
2022/10/18 12:42:52;;;;;;;6.27;3.37;;;28.00;71.20;;;;;;5002922;28;20462;-87
2022/10/18 12:45:38;;;;;;;6.60;3.10;;;27.80;72.00;;;;;;5003750;28;20443;-86
2022/10/18 12:48:06;;;;;;;5.83;3.80;;;27.80;72.90;;;;;;5003684;28;20817;-86
2022/10/18 12:50:36;;;;;;;3.97;3.13;;;27.60;74.50;;;;;;5008885;28;20551;-86
2022/10/18 12:53:18;;;;;;;4.93;3.90;;;27.40;76.10;;;;;;5024507;28;20413;-86
2022/10/18 12:55:47;;;;;;;6.83;4.30;;;27.50;77.40;;;;;;5025467;28;20442;-86
2022/10/18 12:58:29;;;;;;;4.93;3.47;;;27.60;77.70;;;;;;5020591;28;20435;-86
2022/10/18 13:01:01;;;;;;;5.80;3.30;;;28.00;76.50;;;;;;5005385;28;20459;-87